Time;durP1;ratioP1;P1;durP2;ratioP2;P2;SDS_P1;SDS_P2;PMS_P1;PMS_P2;Temp;Humidity;BMP_temperature;BMP_pressure;BME280_temperature;BME280_humidity;BME280_pressure;Samples;Min_cycle;Max_cycle;Signal;HPM_P1;HPM_P2
2022/08/03 00:00:25;;;;;;;8.13;3.53;;;;;;;24.77;50.72;101394.66;5092034;28;20048;-73
2022/08/03 00:02:56;;;;;;;4.57;2.55;;;;;;;24.72;50.79;101389.75;5090870;28;20040;-73
2022/08/03 00:05:22;;;;;;;5.75;2.67;;;;;;;24.68;50.59;101388.41;5092305;28;20458;-73
2022/08/03 00:07:49;;;;;;;8.98;3.05;;;;;;;24.61;50.69;101384.72;5092209;28;20043;-73
2022/08/03 00:10:16;;;;;;;4.43;3.13;;;;;;;24.56;51.02;101385.28;5092326;28;20044;-74
2022/08/03 00:12:42;;;;;;;6.38;3.13;;;;;;;24.51;50.87;101384.94;5091100;28;20075;-73
2022/08/03 00:15:09;;;;;;;6.40;2.88;;;;;;;24.47;51.08;101382.75;5091692;28;20135;-73
2022/08/03 00:17:43;;;;;;;6.10;2.60;;;;;;;24.44;51.04;101380.41;5090754;28;20060;-74
2022/08/03 00:20:20;;;;;;;6.18;3.22;;;;;;;24.39;51.11;101383.69;5092181;28;20220;-74
2022/08/03 00:25:18;;;;;;;5.43;3.00;;;;;;;24.31;51.23;101389.28;5090444;28;20070;-73
2022/08/03 00:27:44;;;;;;;5.70;3.20;;;;;;;24.28;51.43;101386.91;5090659;28;20119;-73
2022/08/03 00:30:13;;;;;;;7.35;3.35;;;;;;;24.28;51.59;101385.00;5091849;28;20561;-73
2022/08/03 00:32:43;;;;;;;4.82;2.72;;;;;;;24.29;51.56;101388.59;5090328;28;20052;-73
2022/08/03 00:35:30;;;;;;;7.03;2.88;;;;;;;24.29;51.24;101389.44;5089700;28;20271;-73
2022/08/03 00:38:03;;;;;;;5.68;3.30;;;;;;;24.29;51.52;101389.44;5091605;28;20048;-76
2022/08/03 00:40:30;;;;;;;6.50;3.17;;;;;;;24.30;51.58;101395.78;5090696;28;20394;-77
2022/08/03 00:43:01;;;;;;;5.95;2.83;;;;;;;24.28;51.95;101395.97;5090466;28;20044;-77
2022/08/03 00:45:30;;;;;;;6.90;3.28;;;;;;;24.26;51.67;101391.69;5095009;27;20052;-73
2022/08/03 00:47:58;;;;;;;5.07;3.40;;;;;;;24.22;51.67;101393.09;5095322;28;20040;-73
2022/08/03 00:50:28;;;;;;;4.43;3.17;;;;;;;24.18;51.87;101383.53;5094190;28;20613;-74
2022/08/03 00:52:58;;;;;;;5.18;2.55;;;;;;;24.13;51.72;101384.06;5095678;28;20486;-74
2022/08/03 00:55:25;;;;;;;3.90;3.00;;;;;;;24.06;51.51;101386.69;5074991;28;20068;-73
2022/08/03 00:57:52;;;;;;;6.65;3.65;;;;;;;23.97;51.75;101379.56;5081330;28;20055;-73
2022/08/03 01:00:21;;;;;;;7.53;3.63;;;;;;;23.92;51.90;101378.41;5095182;28;20040;-73
2022/08/03 01:02:53;;;;;;;7.97;3.50;;;;;;;23.90;52.35;101384.09;5095131;28;20046;-74
2022/08/03 01:05:20;;;;;;;5.80;3.20;;;;;;;23.92;52.24;101386.66;5094779;27;20565;-73
2022/08/03 01:07:59;;;;;;;8.07;4.50;;;;;;;23.89;52.21;101376.03;5095172;28;20486;-73
2022/08/03 01:10:49;;;;;;;5.80;3.65;;;;;;;23.83;52.41;101374.88;5094979;28;20119;-75
2022/08/03 01:13:28;;;;;;;5.05;2.63;;;;;;;23.79;52.47;101379.03;5094818;28;20062;-74
2022/08/03 01:16:20;;;;;;;3.80;2.78;;;;;;;23.73;52.24;101377.84;5093521;28;20486;-74
2022/08/03 01:19:18;;;;;;;6.82;2.60;;;;;;;23.68;52.42;101369.31;5093829;28;20243;-73
2022/08/03 01:21:48;;;;;;;6.28;3.35;;;;;;;23.64;52.40;101370.69;5076064;28;20040;-73
2022/08/03 01:24:43;;;;;;;5.20;3.22;;;;;;;23.59;52.88;101369.53;5093428;27;20044;-73
2022/08/03 01:27:24;;;;;;;10.15;3.70;;;;;;;23.53;52.49;101362.84;5093556;28;20040;-74
2022/08/03 01:29:58;;;;;;;4.47;3.58;;;;;;;23.49;53.09;101369.75;5093201;28;20048;-73
2022/08/03 01:32:33;;;;;;;7.35;4.05;;;;;;;23.45;53.04;101363.75;5094357;28;20043;-73
2022/08/03 01:35:31;;;;;;;5.90;4.07;;;;;;;23.43;53.23;101365.84;5094384;28;20036;-73
2022/08/03 01:38:04;;;;;;;5.38;3.20;;;;;;;23.42;53.00;101364.13;5094248;28;20547;-73
2022/08/03 01:40:34;;;;;;;5.93;3.22;;;;;;;23.39;53.24;101372.72;5094272;28;20064;-73
2022/08/03 01:43:07;;;;;;;7.57;3.70;;;;;;;23.35;53.16;101367.75;5094654;28;20086;-73
2022/08/03 01:45:36;;;;;;;4.95;3.17;;;;;;;23.29;53.18;101361.13;5094361;28;20429;-74
2022/08/03 01:48:04;;;;;;;7.63;4.00;;;;;;;23.24;53.21;101371.75;5092744;28;20055;-74
2022/08/03 01:50:33;;;;;;;6.63;3.80;;;;;;;23.21;53.32;101365.78;5092621;28;20371;-74
2022/08/03 01:53:02;;;;;;;6.63;3.80;;;;;;;23.20;53.27;101364.06;5093939;28;20131;-73
2022/08/03 01:55:32;;;;;;;10.07;4.07;;;;;;;23.19;53.07;101363.22;5092310;28;20043;-74
2022/08/03 01:58:02;;;;;;;8.25;4.40;;;;;;;23.17;53.78;101364.44;5092722;28;20123;-73
2022/08/03 02:00:35;;;;;;;6.55;3.97;;;;;;;23.14;53.71;101361.03;5093706;28;20403;-73
2022/08/03 02:03:05;;;;;;;6.80;4.30;;;;;;;23.10;53.86;101356.06;5093727;28;20036;-74
2022/08/03 02:05:32;;;;;;;7.47;3.65;;;;;;;23.04;53.91;101352.16;5091903;28;20131;-74
2022/08/03 02:08:02;;;;;;;8.25;3.97;;;;;;;22.95;54.08;101355.94;5092403;28;20122;-74
2022/08/03 02:10:31;;;;;;;7.88;3.88;;;;;;;22.93;54.13;101348.94;5093658;28;20046;-73
2022/08/03 02:13:07;;;;;;;8.65;3.80;;;;;;;22.90;53.97;101354.75;5092489;28;20051;-74
2022/08/03 02:15:36;;;;;;;6.68;3.65;;;;;;;22.89;54.00;101350.31;5092431;28;20071;-74
2022/08/03 02:18:06;;;;;;;5.15;3.38;;;;;;;22.87;54.38;101355.97;5093354;28;20123;-74
2022/08/03 02:20:36;;;;;;;12.98;4.10;;;;;;;22.86;54.28;101354.25;5093325;28;20040;-74
2022/08/03 02:23:06;;;;;;;7.05;3.95;;;;;;;22.82;54.56;101347.44;5093551;28;20443;-74
2022/08/03 02:25:37;;;;;;;6.35;4.00;;;;;;;22.81;54.34;101348.47;5093404;28;20110;-73
2022/08/03 02:28:09;;;;;;;9.32;4.30;;;;;;;22.79;54.65;101347.75;5092973;28;20050;-74
2022/08/03 02:30:38;;;;;;;6.18;4.05;;;;;;;22.77;54.83;101349.81;5093255;28;20044;-74
2022/08/03 02:33:11;;;;;;;8.35;4.13;;;;;;;22.73;54.85;101346.56;5093250;28;20394;-74
2022/08/03 02:35:39;;;;;;;7.47;3.92;;;;;;;22.72;54.77;101349.47;5092918;28;20371;-73
2022/08/03 02:38:08;;;;;;;6.97;4.28;;;;;;;22.71;55.14;101337.69;5093205;28;20504;-76
2022/08/03 02:40:37;;;;;;;10.65;4.68;;;;;;;22.73;55.30;101342.97;5092124;28;20122;-75
2022/08/03 02:43:11;;;;;;;11.57;4.55;;;;;;;22.72;55.20;101344.88;5093229;28;20063;-75
2022/08/03 02:45:42;;;;;;;8.07;4.38;;;;;;;22.74;55.54;101336.47;5092563;27;20131;-75
2022/08/03 02:48:15;;;;;;;8.73;4.25;;;;;;;22.74;55.33;101334.59;5093315;28;20498;-75
2022/08/03 02:50:43;;;;;;;7.50;4.03;;;;;;;22.73;55.26;101335.63;5092154;28;20047;-75
2022/08/03 02:53:16;;;;;;;7.70;3.92;;;;;;;22.71;55.59;101337.69;5092691;28;20043;-76
2022/08/03 02:55:46;;;;;;;8.55;4.30;;;;;;;22.69;55.69;101336.16;5074504;28;20111;-75
2022/08/03 02:58:16;;;;;;;7.30;4.45;;;;;;;22.68;55.84;101337.19;5092557;28;20047;-76
2022/08/03 03:00:44;;;;;;;10.93;4.80;;;;;;;22.66;55.80;101334.63;5092401;28;20498;-73
2022/08/03 03:03:14;;;;;;;10.18;4.38;;;;;;;22.63;55.63;101332.22;5092469;28;20040;-73
2022/08/03 03:05:42;;;;;;;10.80;4.57;;;;;;;22.64;55.61;101335.81;5092254;28;20391;-74
2022/08/03 03:08:23;;;;;;;9.60;3.88;;;;;;;22.63;55.73;101332.22;5091977;28;20040;-74
2022/08/03 03:10:58;;;;;;;8.02;4.53;;;;;;;22.62;55.81;101324.19;5092281;28;20123;-74
2022/08/03 03:13:31;;;;;;;6.55;3.90;;;;;;;22.59;55.72;101328.13;5092410;28;20397;-74
2022/08/03 03:16:03;;;;;;;8.27;4.47;;;;;;;22.59;55.70;101330.88;5092236;28;20058;-75
2022/08/03 03:18:33;;;;;;;9.75;4.55;;;;;;;22.62;55.82;101329.66;5091605;28;20130;-74
2022/08/03 03:21:03;;;;;;;6.22;4.40;;;;;;;22.64;55.46;101335.81;5074160;28;20044;-74
2022/08/03 03:23:35;;;;;;;9.05;4.50;;;;;;;22.65;55.64;101337.53;5092278;28;20434;-74
2022/08/03 03:26:02;;;;;;;6.97;4.28;;;;;;;22.66;55.79;101341.97;5091966;27;20179;-74
2022/08/03 03:28:30;;;;;;;6.43;4.43;;;;;;;22.66;55.88;101340.09;5092065;28;20040;-74
2022/08/03 03:30:57;;;;;;;7.70;4.47;;;;;;;22.66;55.62;101333.75;5092021;28;20046;-75
2022/08/03 03:33:24;;;;;;;7.05;4.38;;;;;;;22.66;55.87;101336.50;5090477;28;20385;-74
2022/08/03 03:35:54;;;;;;;8.77;4.78;;;;;;;22.67;55.78;101333.59;5091573;28;20409;-75
2022/08/03 03:38:21;;;;;;;9.43;4.55;;;;;;;22.65;55.56;101332.06;5091305;28;20478;-76
2022/08/03 03:40:47;;;;;;;8.68;4.88;;;;;;;22.63;55.67;101334.13;5092862;28;20046;-76
2022/08/03 03:43:17;;;;;;;9.75;4.85;;;;;;;22.62;55.94;101326.94;5093000;28;20036;-74
2022/08/03 03:45:45;;;;;;;7.25;4.70;;;;;;;22.60;55.65;101329.00;5093371;28;20490;-76
2022/08/03 03:48:12;;;;;;;9.88;4.90;;;;;;;22.59;56.01;101339.09;5093275;28;20047;-76
2022/08/03 03:50:42;;;;;;;9.43;5.25;;;;;;;22.60;55.75;101332.59;5092036;28;20067;-76
2022/08/03 03:53:13;;;;;;;9.52;5.45;;;;;;;22.60;55.72;101332.59;5091766;28;20044;-75
2022/08/03 03:55:41;;;;;;;8.93;5.20;;;;;;;22.58;55.97;101334.63;5093067;27;20059;-74
2022/08/03 03:58:27;;;;;;;10.85;6.32;;;;;;;22.55;55.79;101345.09;5091814;28;20114;-74
2022/08/03 04:00:54;;;;;;;8.32;5.55;;;;;;;22.51;56.07;101339.09;5093045;28;20040;-74
2022/08/03 04:03:22;;;;;;;8.02;5.28;;;;;;;22.48;56.08;101340.31;5092859;28;20410;-74
2022/08/03 04:11:23;;;;;;;11.65;6.00;;;;;;;22.55;56.50;101335.00;5091925;28;20405;-76
2022/08/03 04:14:08;;;;;;;10.52;5.68;;;;;;;22.53;56.50;101334.31;5092921;28;20036;-76
2022/08/03 04:16:38;;;;;;;12.73;5.70;;;;;;;22.55;56.56;101337.72;5093040;27;20414;-76
2022/08/03 04:19:12;;;;;;;11.93;5.68;;;;;;;22.57;56.49;101340.28;5094757;28;20043;-76
2022/08/03 04:21:42;;;;;;;8.52;5.38;;;;;;;22.58;56.71;101336.53;5095685;28;20119;-77
2022/08/03 04:24:12;;;;;;;10.85;5.30;;;;;;;22.58;56.93;101337.38;5096725;28;20040;-77
2022/08/03 04:26:42;;;;;;;12.68;6.03;;;;;;;22.59;56.67;101330.88;5096359;27;20206;-75
2022/08/03 04:29:10;;;;;;;10.40;6.30;;;;;;;22.62;56.70;101337.88;5096708;28;20397;-74
2022/08/03 04:31:38;;;;;;;10.88;5.65;;;;;;;22.62;56.40;101330.53;5096448;28;20044;-74
2022/08/03 04:34:07;;;;;;;15.43;7.15;;;;;;;22.63;56.64;101340.44;5095488;28;20472;-73
2022/08/03 04:36:38;;;;;;;13.82;7.18;;;;;;;22.63;56.58;101340.44;5096584;28;20483;-74
2022/08/03 04:39:18;;;;;;;15.45;8.27;;;;;;;22.64;56.52;101349.50;5096485;28;20051;-74
2022/08/03 04:41:48;;;;;;;18.60;9.27;;;;;;;22.62;56.70;101338.72;5094922;28;20058;-74
2022/08/03 04:45:02;;;;;;;16.75;8.73;;;;;;;22.60;56.81;101345.41;5096388;28;20044;-74
2022/08/03 04:47:33;;;;;;;21.05;9.30;;;;;;;22.61;56.99;101347.13;5095631;28;20493;-74
2022/08/03 04:50:01;;;;;;;24.42;9.88;;;;;;;22.63;56.90;101340.44;5095893;28;20052;-75
2022/08/03 04:52:27;;;;;;;28.40;10.40;;;;;;;22.63;57.06;101345.91;5095945;28;20035;-76
2022/08/03 04:54:54;;;;;;;24.98;10.50;;;;;;;22.59;56.92;101339.09;5095943;28;20052;-76
2022/08/03 04:57:21;;;;;;;23.25;9.55;;;;;;;22.58;57.19;101348.31;5093805;28;20032;-77
2022/08/03 04:59:53;;;;;;;23.65;9.77;;;;;;;22.59;57.28;101343.72;5095563;28;20051;-76
2022/08/03 05:02:27;;;;;;;19.63;9.35;;;;;;;22.62;57.19;101348.84;5095662;28;20126;-76
2022/08/03 05:04:58;;;;;;;18.88;8.38;;;;;;;22.65;57.40;101360.28;5095712;28;20042;-77
2022/08/03 05:07:25;;;;;;;12.88;7.93;;;;;;;22.69;57.46;101356.16;5094841;28;20452;-77
2022/08/03 05:10:02;;;;;;;11.10;6.60;;;;;;;22.71;57.51;101362.31;5095479;28;20552;-77
2022/08/03 05:12:29;;;;;;;11.32;6.75;;;;;;;22.74;57.68;101351.03;5095098;28;20044;-76
2022/08/03 05:15:00;;;;;;;12.05;6.22;;;;;;;22.79;57.75;101356.81;5094893;28;20052;-76
2022/08/03 05:17:27;;;;;;;9.88;5.88;;;;;;;22.81;57.83;101363.00;5095031;28;20409;-76
2022/08/03 05:19:54;;;;;;;9.90;5.85;;;;;;;22.85;57.97;101359.91;5094039;28;20044;-76
2022/08/03 05:22:22;;;;;;;9.98;6.20;;;;;;;22.88;57.71;101368.63;5076989;28;20052;-76
2022/08/03 05:24:48;;;;;;;9.35;6.57;;;;;;;22.90;57.66;101357.50;5094728;27;20052;-77
2022/08/03 05:27:18;;;;;;;10.43;6.30;;;;;;;22.90;58.36;101372.06;5093064;28;20119;-75
2022/08/03 05:29:46;;;;;;;9.15;6.13;;;;;;;22.93;58.35;101370.84;5093123;28;20497;-76
2022/08/03 05:32:12;;;;;;;9.57;5.95;;;;;;;22.95;58.21;101368.78;5093877;28;20043;-75
2022/08/03 05:34:39;;;;;;;11.10;5.80;;;;;;;22.97;58.48;101370.31;5092682;28;20044;-74
2022/08/03 05:37:06;;;;;;;11.20;5.88;;;;;;;23.01;58.82;101371.66;5092511;28;20093;-75
2022/08/03 05:39:34;;;;;;;13.05;7.00;;;;;;;23.03;58.71;101369.59;5093606;28;20131;-76
2022/08/03 05:42:01;;;;;;;8.35;5.38;;;;;;;23.09;58.85;101377.13;5093870;28;20040;-75
2022/08/03 05:44:28;;;;;;;12.10;6.57;;;;;;;23.12;58.89;101374.03;5093857;28;20043;-75
2022/08/03 05:46:56;;;;;;;11.48;6.75;;;;;;;23.18;59.02;101383.44;5092315;28;20044;-74
2022/08/03 05:49:23;;;;;;;9.63;6.32;;;;;;;23.23;58.99;101382.91;5094095;28;20138;-74
2022/08/03 05:51:49;;;;;;;10.73;5.93;;;;;;;23.27;58.83;101387.84;5093604;28;20036;-76
2022/08/03 05:54:37;;;;;;;10.60;5.97;;;;;;;23.32;58.87;101379.94;5078407;28;20402;-75
2022/08/03 05:57:24;;;;;;;12.43;6.60;;;;;;;23.36;59.21;101384.03;5093484;28;20040;-79
2022/08/03 05:59:50;;;;;;;8.18;6.18;;;;;;;23.43;59.10;101384.16;5093766;28;20123;-77
2022/08/03 06:02:25;;;;;;;8.88;6.00;;;;;;;23.52;59.13;101387.72;5093349;28;20047;-76
2022/08/03 06:04:56;;;;;;;10.25;6.30;;;;;;;23.62;59.27;101383.75;5092320;28;20582;-76
2022/08/03 06:07:23;;;;;;;12.25;5.95;;;;;;;23.72;59.33;101380.75;5091707;28;20036;-76
2022/08/03 06:09:50;;;;;;;7.93;5.82;;;;;;;23.82;59.32;101381.41;5093588;28;20055;-76
2022/08/03 06:12:37;;;;;;;9.85;5.22;;;;;;;23.97;58.92;101390.56;5091609;28;20043;-76
2022/08/03 06:15:04;;;;;;;10.32;5.28;;;;;;;24.10;59.11;101389.94;5092956;28;20505;-76
2022/08/03 06:17:33;;;;;;;7.07;4.40;;;;;;;24.22;59.04;101393.94;5092159;28;20044;-76
2022/08/03 06:20:04;;;;;;;11.05;4.70;;;;;;;24.34;59.06;101389.75;5094051;28;20389;-76
2022/08/03 06:22:31;;;;;;;7.60;4.18;;;;;;;24.49;58.46;101388.94;5092862;28;20048;-75
2022/08/03 06:24:59;;;;;;;6.30;3.60;;;;;;;24.63;58.56;101391.72;5094729;28;20127;-76
2022/08/03 06:27:32;;;;;;;7.32;3.40;;;;;;;24.77;58.37;101389.19;5094519;28;20050;-76
2022/08/03 06:30:04;;;;;;;5.43;2.97;;;;;;;24.90;58.25;101386.63;5094229;28;20055;-75
2022/08/03 06:32:30;;;;;;;13.73;3.55;;;;;;;25.01;57.99;101381.53;5093071;28;20397;-75
2022/08/03 06:34:57;;;;;;;6.80;3.33;;;;;;;25.15;57.88;101388.06;5094338;28;20044;-76
2022/08/03 06:37:25;;;;;;;7.25;2.90;;;;;;;25.28;57.51;101391.00;5094451;28;20036;-75
2022/08/03 06:39:53;;;;;;;7.68;3.30;;;;;;;25.43;57.17;101388.22;5092879;28;20062;-75
2022/08/03 06:42:19;;;;;;;5.75;2.92;;;;;;;25.59;57.00;101396.25;5093509;28;20032;-75
2022/08/03 06:44:52;;;;;;;5.32;2.55;;;;;;;25.75;56.85;101391.59;5092860;28;20048;-75
2022/08/03 06:47:19;;;;;;;8.15;2.42;;;;;;;25.93;56.72;101392.84;5094064;28;20462;-79
2022/08/03 06:49:45;;;;;;;4.85;2.42;;;;;;;26.10;56.61;101398.97;5092782;28;20142;-72
2022/08/03 06:52:32;;;;;;;8.20;2.75;;;;;;;26.25;55.83;101401.63;5093987;28;20043;-73
2022/08/03 06:55:06;;;;;;;5.78;2.33;;;;;;;26.40;55.50;101405.19;5093874;28;20556;-72
2022/08/03 06:57:32;;;;;;;10.27;2.50;;;;;;;26.53;55.05;101398.94;5093876;28;20508;-72
2022/08/03 07:00:00;;;;;;;7.07;2.83;;;;;;;26.65;54.83;101397.31;5093822;28;20052;-72
2022/08/03 07:02:37;;;;;;;9.38;2.70;;;;;;;26.83;54.47;101400.44;5093920;28;20061;-72
2022/08/03 07:05:09;;;;;;;8.57;3.00;;;;;;;27.01;54.01;101399.09;5093744;28;20047;-72
2022/08/03 07:07:36;;;;;;;9.43;2.58;;;;;;;27.17;53.52;101404.28;5093942;28;20040;-73
2022/08/03 07:10:04;;;;;;;4.50;2.25;;;;;;;27.25;53.15;101393.06;5093781;28;20036;-72
2022/08/03 07:12:32;;;;;;;10.48;2.53;;;;;;;27.37;52.95;101396.94;5093442;28;20064;-73
2022/08/03 07:15:03;;;;;;;5.78;2.30;;;;;;;27.50;52.94;101401.69;5092399;28;20498;-72
2022/08/03 07:17:32;;;;;;;8.18;2.40;;;;;;;27.64;52.37;101400.72;5093380;28;20051;-72
2022/08/03 07:20:00;;;;;;;6.45;2.30;;;;;;;27.75;52.13;101407.53;5093164;28;20059;-79
2022/08/03 07:22:28;;;;;;;6.00;2.25;;;;;;;27.83;51.84;101410.94;5091419;28;20086;-79
2022/08/03 07:24:56;;;;;;;6.43;2.65;;;;;;;27.91;51.53;101411.81;5071724;28;20083;-80
2022/08/03 07:27:25;;;;;;;7.50;2.15;;;;;;;27.97;51.49;101413.72;5073181;28;20498;-81
2022/08/03 07:29:52;;;;;;;6.43;2.15;;;;;;;28.06;51.33;101418.84;5088610;28;20387;-81
2022/08/03 07:32:19;;;;;;;6.53;2.15;;;;;;;28.17;50.56;101417.38;5071945;28;20035;-81
2022/08/03 07:34:47;;;;;;;7.05;1.95;;;;;;;28.22;50.80;101409.31;5086857;28;20056;-82
2022/08/03 07:37:14;;;;;;;8.38;2.20;;;;;;;28.27;50.26;101414.25;5071673;28;20468;-81
2022/08/03 07:39:40;;;;;;;5.85;1.92;;;;;;;28.30;50.29;101414.69;5070354;28;20044;-81
2022/08/03 07:42:07;;;;;;;7.63;2.22;;;;;;;28.38;50.14;101413.63;5071281;28;20072;-80
2022/08/03 07:44:35;;;;;;;12.07;2.20;;;;;;;28.48;49.85;101411.28;5071237;28;20057;-81
2022/08/03 07:47:01;;;;;;;5.88;1.73;;;;;;;28.62;49.59;101407.44;5086682;28;20036;-80
2022/08/03 07:49:29;;;;;;;6.13;1.98;;;;;;;28.77;49.35;101409.97;5071316;28;20040;-81
2022/08/03 07:54:42;;;;;;;3.97;1.63;;;;;;;29.22;49.08;101415.69;5086311;28;20040;-81
2022/08/03 07:57:09;;;;;;;6.93;2.08;;;;;;;29.38;48.58;101404.97;5086765;28;20040;-81
2022/08/03 07:59:38;;;;;;;7.25;1.90;;;;;;;29.45;47.46;101416.03;5086886;28;20066;-81
2022/08/03 08:02:25;;;;;;;4.25;1.70;;;;;;;29.49;47.61;101410.91;5083570;28;20059;-81
2022/08/03 08:04:51;;;;;;;5.25;1.60;;;;;;;29.58;47.47;101402.13;5082249;28;20135;-76
2022/08/03 08:07:21;;;;;;;8.70;1.77;;;;;;;29.69;47.12;101400.59;5092852;28;20302;-84
2022/08/03 08:09:48;;;;;;;9.23;2.20;;;;;;;29.77;46.84;101403.13;5112868;28;20053;-80
2022/08/03 08:12:14;;;;;;;11.07;2.13;;;;;;;29.85;46.36;101402.88;5111025;28;20044;-83
2022/08/03 08:14:46;;;;;;;8.23;1.55;;;;;;;29.97;46.02;101406.63;5101681;28;20486;-82
2022/08/03 08:17:13;;;;;;;10.13;2.63;;;;;;;30.03;46.12;101396.59;5092282;27;20510;-84
2022/08/03 08:19:40;;;;;;;7.00;2.03;;;;;;;30.11;45.66;101407.41;5094561;28;20047;-82
2022/08/03 08:22:18;;;;;;;6.50;1.80;;;;;;;30.19;45.51;101397.97;5111687;28;20109;-82
2022/08/03 08:24:59;;;;;;;8.25;1.90;;;;;;;30.31;45.23;101398.94;5099851;28;20094;-83
2022/08/03 08:27:26;;;;;;;7.35;1.90;;;;;;;30.41;44.98;101406.75;5092315;28;20105;-81
2022/08/03 08:30:17;;;;;;;11.00;2.40;;;;;;;30.48;44.53;101402.03;5092124;28;20378;-81
2022/08/03 08:32:45;;;;;;;8.63;2.10;;;;;;;30.56;44.62;101405.34;5091687;28;20055;-80
2022/08/03 08:35:19;;;;;;;7.83;1.60;;;;;;;30.69;44.38;101404.41;5092048;28;20106;-81
2022/08/03 08:37:45;;;;;;;6.13;1.70;;;;;;;30.77;44.19;101404.13;5092051;28;20044;-81
2022/08/03 08:40:20;;;;;;;6.13;2.08;;;;;;;30.85;43.75;101401.06;5090444;28;20490;-83
2022/08/03 08:42:52;;;;;;;7.55;2.40;;;;;;;30.95;43.60;101400.50;5091490;28;20040;-82
2022/08/03 08:45:26;;;;;;;7.82;2.40;;;;;;;30.99;43.25;101401.75;5089498;28;20461;-82
2022/08/03 08:47:54;;;;;;;5.95;2.17;;;;;;;30.97;43.17;101399.22;5077851;28;20111;-82
2022/08/03 08:50:27;;;;;;;8.80;1.80;;;;;;;31.02;43.29;101395.75;5091465;28;20490;-81
2022/08/03 08:53:01;;;;;;;6.75;2.13;;;;;;;31.14;43.46;101399.44;5073214;28;20641;-82
2022/08/03 08:55:28;;;;;;;4.00;1.47;;;;;;;31.26;42.90;101403.19;5091425;28;20036;-82
2022/08/03 08:58:18;;;;;;;6.22;1.65;;;;;;;31.34;42.68;101403.97;5090111;28;20492;-82
2022/08/03 09:00:47;;;;;;;10.57;1.90;;;;;;;31.42;42.69;101396.16;5091027;28;20052;-79
2022/08/03 09:03:17;;;;;;;10.27;1.63;;;;;;;31.54;42.27;101399.84;5091014;28;20459;-83
2022/08/03 09:05:58;;;;;;;8.15;2.38;;;;;;;31.66;41.80;101401.84;5079148;28;20060;-81
2022/08/03 09:08:25;;;;;;;9.20;2.00;;;;;;;31.73;41.62;101403.47;5095866;28;20028;-82
2022/08/03 09:10:52;;;;;;;10.07;2.00;;;;;;;31.84;41.67;101399.03;5094739;28;20098;-83
2022/08/03 09:13:23;;;;;;;6.97;1.55;;;;;;;31.91;41.67;101403.41;5077999;28;20047;-80
2022/08/03 09:16:12;;;;;;;7.97;2.20;;;;;;;32.01;41.39;101402.88;5094321;28;20059;-83
2022/08/03 09:18:41;;;;;;;6.75;1.77;;;;;;;32.10;40.95;101397.81;5095102;28;20044;-82
2022/08/03 09:21:24;;;;;;;4.97;2.00;;;;;;;32.11;40.89;101402.28;5094368;28;20054;-82
2022/08/03 09:24:04;;;;;;;6.60;1.70;;;;;;;32.15;40.57;101396.00;5094506;28;20036;-82
2022/08/03 09:26:35;;;;;;;8.80;2.10;;;;;;;32.25;40.58;101401.00;5095055;27;20066;-82
2022/08/03 09:29:06;;;;;;;9.98;2.03;;;;;;;32.40;40.50;101397.78;5077845;28;20294;-83
2022/08/03 09:31:41;;;;;;;8.18;1.80;;;;;;;32.48;40.33;101392.69;5094131;28;20056;-82
2022/08/03 09:34:14;;;;;;;7.70;2.03;;;;;;;32.59;40.20;101395.72;5094458;28;20048;-82
2022/08/03 09:36:43;;;;;;;7.13;2.35;;;;;;;32.66;40.01;101390.91;5095291;27;20541;-83
2022/08/03 09:39:18;;;;;;;11.38;2.25;;;;;;;32.70;39.30;101392.97;5094978;28;20070;-82
2022/08/03 09:42:07;;;;;;;10.90;1.88;;;;;;;32.72;39.29;101392.75;5094301;28;20044;-82
2022/08/03 09:44:44;;;;;;;8.85;3.03;;;;;;;32.69;39.16;101395.97;5094333;28;20048;-81
2022/08/03 09:47:13;;;;;;;3.53;1.52;;;;;;;32.71;39.37;101393.81;5095070;28;20059;-82
2022/08/03 09:49:42;;;;;;;8.80;1.58;;;;;;;32.78;39.31;101392.66;5094222;28;20040;-82
2022/08/03 09:52:21;;;;;;;7.53;1.92;;;;;;;32.93;39.10;101394.09;5094562;28;20044;-82
2022/08/03 09:55:11;;;;;;;11.05;2.03;;;;;;;33.02;38.58;101392.63;5095234;28;20044;-82
2022/08/03 09:58:10;;;;;;;8.80;1.67;;;;;;;33.20;38.55;101389.69;5095123;28;20040;-81
2022/08/03 10:01:00;;;;;;;15.23;2.70;;;;;;;33.34;37.94;101393.91;5094878;28;20155;-82
2022/08/03 10:03:35;;;;;;;16.08;2.85;;;;;;;33.40;37.54;101392.06;5094672;28;20040;-82
2022/08/03 10:06:22;;;;;;;11.18;2.17;;;;;;;33.45;37.90;101404.19;5094091;28;20044;-83
2022/08/03 10:09:23;;;;;;;7.20;2.30;;;;;;;33.51;37.55;101388.44;5094825;28;20036;-82
2022/08/03 10:11:50;;;;;;;8.65;2.10;;;;;;;33.63;37.68;101388.38;5081692;28;20048;-81
2022/08/03 10:14:22;;;;;;;8.32;2.08;;;;;;;33.72;37.14;101389.69;5093753;28;20074;-82
2022/08/03 10:16:49;;;;;;;8.18;2.50;;;;;;;33.79;37.17;101393.16;5092557;28;20044;-81
2022/08/03 10:19:15;;;;;;;8.95;2.40;;;;;;;33.89;36.99;101384.16;5094515;27;20134;-82
2022/08/03 10:21:49;;;;;;;10.48;2.10;;;;;;;33.88;36.24;101386.13;5094322;28;20036;-80
2022/08/03 10:24:24;;;;;;;9.30;2.15;;;;;;;33.87;35.96;101378.84;5094566;28;20032;-80
2022/08/03 10:26:52;;;;;;;10.18;2.00;;;;;;;33.98;36.53;101388.25;5094498;28;20067;-79
2022/08/03 10:29:26;;;;;;;6.95;2.00;;;;;;;34.08;36.16;101382.84;5094613;28;20044;-80
2022/08/03 10:31:56;;;;;;;7.60;1.85;;;;;;;34.18;36.06;101376.59;5094231;28;20048;-81
2022/08/03 10:34:30;;;;;;;7.30;1.90;;;;;;;34.23;35.68;101376.72;5094204;28;20056;-81
2022/08/03 10:36:59;;;;;;;9.48;2.20;;;;;;;34.32;35.63;101377.97;5092813;28;20048;-82
2022/08/03 10:39:29;;;;;;;6.70;1.85;;;;;;;34.43;35.45;101368.72;5093100;28;20040;-81
2022/08/03 10:41:57;;;;;;;9.52;2.40;;;;;;;34.49;35.37;101369.63;5095072;28;20438;-80
2022/08/03 10:44:38;;;;;;;9.68;2.33;;;;;;;34.47;34.86;101369.91;5092850;28;20071;-80
2022/08/03 10:47:09;;;;;;;14.18;2.75;;;;;;;34.57;34.85;101364.47;5093455;28;20052;-82
2022/08/03 10:49:36;;;;;;;6.38;2.45;;;;;;;34.67;35.00;101366.56;5092769;28;20036;-82
2022/08/03 10:52:04;;;;;;;11.65;2.47;;;;;;;34.78;34.60;101371.19;5092342;28;20097;-81
2022/08/03 10:57:54;;;;;;;11.15;2.88;;;;;;;34.93;33.91;101351.06;5092298;28;20048;-81
2022/08/03 11:00:26;;;;;;;9.55;2.40;;;;;;;34.95;34.06;101358.09;5092291;28;20044;-81
2022/08/03 11:03:16;;;;;;;12.10;3.00;;;;;;;34.96;34.31;101345.00;5091929;28;20395;-84
2022/08/03 11:05:53;;;;;;;12.88;2.35;;;;;;;35.08;34.40;101351.28;5071874;28;20048;-82
2022/08/03 11:08:28;;;;;;;16.83;3.58;;;;;;;35.17;33.89;101346.09;5072129;28;20045;-82
2022/08/03 11:11:22;;;;;;;10.23;2.35;;;;;;;35.24;33.60;101347.59;5071969;28;20055;-83
2022/08/03 11:13:56;;;;;;;8.60;2.35;;;;;;;35.35;33.40;101334.63;5090782;28;20165;-82
2022/08/03 11:16:25;;;;;;;11.80;2.17;;;;;;;35.38;33.57;101345.25;5091842;28;20052;-82
2022/08/03 11:18:56;;;;;;;6.93;2.28;;;;;;;35.37;33.43;101332.41;5091974;28;20043;-82
2022/08/03 11:21:47;;;;;;;10.40;2.40;;;;;;;35.39;32.84;101326.56;5092950;28;20054;-81
2022/08/03 11:24:35;;;;;;;16.92;2.72;;;;;;;35.44;33.12;101335.00;5071356;28;20306;-82
2022/08/03 11:27:17;;;;;;;12.15;3.10;;;;;;;35.54;33.30;101327.56;5071624;28;20119;-81
2022/08/03 11:30:00;;;;;;;10.35;3.00;;;;;;;35.65;32.91;101322.91;5072965;28;20047;-81
2022/08/03 11:32:36;;;;;;;14.20;3.15;;;;;;;35.73;33.19;101328.06;5092683;28;20040;-82
2022/08/03 11:35:23;;;;;;;10.82;2.75;;;;;;;35.85;32.40;101334.34;5074818;28;20071;-83
2022/08/03 11:37:53;;;;;;;11.23;2.83;;;;;;;35.98;32.42;101333.06;5091295;28;20051;-82
2022/08/03 11:40:48;;;;;;;7.75;2.30;;;;;;;36.04;32.24;101339.56;5090150;28;20044;-82
2022/08/03 11:43:28;;;;;;;14.25;4.18;;;;;;;36.14;31.80;101331.25;5092053;28;20476;-81
2022/08/03 11:46:02;;;;;;;14.25;2.85;;;;;;;36.21;32.24;101331.88;5091980;28;20058;-80
2022/08/03 11:48:43;;;;;;;11.68;3.25;;;;;;;36.23;31.94;101332.44;5092326;28;20044;-80
2022/08/03 11:51:24;;;;;;;9.45;2.00;;;;;;;36.25;31.90;101341.41;5091060;28;20047;-80
2022/08/03 11:53:57;;;;;;;11.43;2.55;;;;;;;36.29;31.47;101337.84;5090383;28;20032;-79
2022/08/03 11:56:24;;;;;;;11.93;3.00;;;;;;;36.30;31.32;101338.69;5091925;28;20134;-81
2022/08/03 11:58:54;;;;;;;12.35;2.63;;;;;;;36.26;30.82;101337.50;5090638;28;20151;-82